createdAt,value
2019-01-23T00:02:13.662Z,134.18
2019-01-23T00:04:41.673Z,132.85
2019-01-23T00:07:09.608Z,150.30
2019-01-23T00:09:37.566Z,149.15
2019-01-23T00:12:05.513Z,143.43
2019-01-23T00:14:33.508Z,142.22
2019-01-23T00:17:01.515Z,148.75
2019-01-23T00:19:29.431Z,144.60
2019-01-23T00:21:57.423Z,136.72
2019-01-23T00:24:25.363Z,147.78
2019-01-23T00:26:53.360Z,148.82
2019-01-23T00:29:21.407Z,143.13
2019-01-23T00:31:49.682Z,138.95
2019-01-23T00:34:17.659Z,149.93
2019-01-23T00:36:45.638Z,140.05
2019-01-23T00:39:13.659Z,136.22
2019-01-23T00:41:41.581Z,147.75
2019-01-23T00:44:09.565Z,144.45
2019-01-23T00:46:37.505Z,144.45
2019-01-23T00:49:05.466Z,139.20
2019-01-23T00:51:52.446Z,141.73
2019-01-23T00:54:39.415Z,130.60
2019-01-23T00:57:07.527Z,144.28
2019-01-23T00:59:35.445Z,147.85
2019-01-23T01:02:03.403Z,148.47
2019-01-23T01:04:31.383Z,142.95
2019-01-23T01:06:59.388Z,135.20
2019-01-23T01:09:27.312Z,138.37
2019-01-23T01:11:55.281Z,131.65
2019-01-23T01:14:23.280Z,131.75
2019-01-23T01:16:51.281Z,140.92
2019-01-23T01:19:19.288Z,131.50
2019-01-23T01:22:06.282Z,135.03
2019-01-23T01:24:34.296Z,127.30
2019-01-23T01:27:02.387Z,131.57
2019-01-23T01:29:30.327Z,130.97
2019-01-23T01:31:58.353Z,124.15
2019-01-23T01:34:26.355Z,126.42
2019-01-23T01:36:54.320Z,131.93
2019-01-23T01:39:22.343Z,134.15
2019-01-23T01:41:50.387Z,128.90
2019-01-23T01:44:18.336Z,133.67
2019-01-23T01:46:46.321Z,134.78
2019-01-23T01:49:14.577Z,133.27
2019-01-23T01:51:42.547Z,135.07
2019-01-23T01:54:10.524Z,131.43
2019-01-23T01:56:38.505Z,125.00
2019-01-23T01:59:06.471Z,135.85
2019-01-23T02:01:34.503Z,127.15
2019-01-23T02:04:21.427Z,133.18
2019-01-23T02:06:49.362Z,129.40
2019-01-23T02:09:17.308Z,129.65
2019-01-23T02:11:45.348Z,130.22
2019-01-23T02:14:13.360Z,124.75
2019-01-23T02:16:41.401Z,131.65
2019-01-23T02:19:09.425Z,138.62
2019-01-23T02:21:37.339Z,128.35
2019-01-23T02:24:05.291Z,132.27
2019-01-23T02:26:33.295Z,132.90
2019-01-23T02:29:01.283Z,124.05
2019-01-23T02:31:29.290Z,140.75
2019-01-23T02:33:57.284Z,135.28
2019-01-23T02:36:25.241Z,141.03
2019-01-23T02:38:53.223Z,137.45
2019-01-23T02:41:21.190Z,131.55
2019-01-23T02:43:49.542Z,128.02
2019-01-23T02:46:17.467Z,137.88
2019-01-23T02:48:45.393Z,133.60
2019-01-23T02:51:13.376Z,127.10
2019-01-23T02:53:41.342Z,134.43
2019-01-23T02:56:09.600Z,129.65
2019-01-23T02:58:37.611Z,125.67
2019-01-23T03:01:05.576Z,131.27
2019-01-23T03:03:33.530Z,140.73
2019-01-23T03:06:01.512Z,135.32
2019-01-23T03:08:29.494Z,136.72
2019-01-23T03:10:57.428Z,128.62
2019-01-23T03:13:25.440Z,136.72
2019-01-23T03:15:53.466Z,132.80
2019-01-23T03:18:21.463Z,135.35
2019-01-23T03:20:49.429Z,127.22
2019-01-23T03:23:17.376Z,132.20
2019-01-23T03:25:45.361Z,138.22
2019-01-23T03:28:13.411Z,137.75
2019-01-23T03:30:41.402Z,129.25
2019-01-23T03:33:09.377Z,134.87
2019-01-23T03:35:37.430Z,137.60
2019-01-23T03:38:05.455Z,137.18
2019-01-23T03:40:52.417Z,133.30
2019-01-23T03:43:20.430Z,130.82
2019-01-23T03:45:48.375Z,136.30
2019-01-23T03:48:16.403Z,141.95
2019-01-23T03:50:44.397Z,143.50
2019-01-23T03:53:12.353Z,141.95
2019-01-23T03:55:40.436Z,137.30
2019-01-23T03:58:08.392Z,130.85
2019-01-23T04:00:36.381Z,133.40
2019-01-23T04:03:04.918Z,142.15
2019-01-23T04:05:51.942Z,133.12
2019-01-23T04:08:19.935Z,140.07
2019-01-23T04:10:47.897Z,136.90
2019-01-23T04:13:16.156Z,139.97
2019-01-23T04:15:44.410Z,138.80
2019-01-23T04:18:12.316Z,134.22
2019-01-23T04:20:40.252Z,139.32
2019-01-23T04:23:08.156Z,140.12
2019-01-23T04:25:36.136Z,140.10
2019-01-23T04:28:04.092Z,136.40
2019-01-23T04:30:32.058Z,145.72
2019-01-23T04:33:00.039Z,139.80
2019-01-23T04:35:28.027Z,148.05
2019-01-23T04:37:55.981Z,143.30
2019-01-23T04:40:23.956Z,131.82
2019-01-23T04:42:51.923Z,133.15
2019-01-23T04:45:19.887Z,139.90
2019-01-23T04:47:47.836Z,129.75
2019-01-23T04:53:17.128Z,130.12
2019-01-23T04:55:45.171Z,135.30
2019-01-23T05:00:55.222Z,119.75
2019-01-23T05:03:23.198Z,118.60
2019-01-23T05:05:51.149Z,116.15
2019-01-23T05:08:19.099Z,128.85
2019-01-23T05:10:47.104Z,127.62
2019-01-23T05:13:15.066Z,124.33
2019-01-23T05:15:43.057Z,134.05
2019-01-23T05:18:10.988Z,128.18
2019-01-23T05:20:38.931Z,129.12
2019-01-23T05:23:25.873Z,131.37
2019-01-23T05:25:53.878Z,125.65
2019-01-23T05:28:21.843Z,123.22
2019-01-23T05:30:49.811Z,121.40
2019-01-23T05:33:17.857Z,133.07
2019-01-23T05:38:27.444Z,122.92
2019-01-23T05:40:55.396Z,115.47
2019-01-23T05:43:23.356Z,117.35
2019-01-23T05:45:51.309Z,118.10
2019-01-23T05:48:19.296Z,128.07
2019-01-23T05:50:47.250Z,121.62
2019-01-23T05:53:15.217Z,124.50
2019-01-23T05:56:02.233Z,110.72
2019-01-23T05:58:30.167Z,115.95
2019-01-23T06:00:58.069Z,110.80
2019-01-23T06:03:26.146Z,112.75
2019-01-23T06:05:54.131Z,112.32
2019-01-23T06:08:22.180Z,101.72
2019-01-23T06:10:50.162Z,99.70
2019-01-23T06:13:18.127Z,107.70
2019-01-23T06:16:05.077Z,104.90
2019-01-23T06:18:33.016Z,108.37
2019-01-23T06:21:01.048Z,104.83
2019-01-23T06:23:28.954Z,112.65
2019-01-23T06:25:56.917Z,107.45
2019-01-23T06:28:24.891Z,108.70
2019-01-23T06:30:52.852Z,113.83
2019-01-23T06:33:20.818Z,108.27
2019-01-23T06:35:48.792Z,114.77
2019-01-23T06:38:16.785Z,108.03
2019-01-23T06:40:44.732Z,110.95
2019-01-23T06:43:12.708Z,108.85
2019-01-23T06:45:40.697Z,110.52
2019-01-23T06:48:08.640Z,111.42
2019-01-23T06:50:36.598Z,116.15
2019-01-23T06:53:04.734Z,119.15
2019-01-23T06:55:32.988Z,121.70
2019-01-23T06:58:00.941Z,141.00
2019-01-23T07:00:29.124Z,121.10
2019-01-23T07:02:57.176Z,115.10
2019-01-23T07:05:25.150Z,123.47
2019-01-23T07:07:53.252Z,111.32
2019-01-23T07:10:24.998Z,109.87
2019-01-23T07:16:00.508Z,125.82
2019-01-23T07:18:28.394Z,107.65
2019-01-23T07:20:56.324Z,111.97
2019-01-23T07:23:24.339Z,108.37
2019-01-23T07:25:52.310Z,106.30
2019-01-23T07:28:20.301Z,122.58
2019-01-23T07:30:48.236Z,121.15
2019-01-23T07:33:16.226Z,118.62
2019-01-23T07:35:44.185Z,112.17
2019-01-23T07:38:12.209Z,109.90
2019-01-23T07:40:40.114Z,111.15
2019-01-23T07:43:08.083Z,109.63
2019-01-23T07:45:36.069Z,111.05
2019-01-23T07:48:04.113Z,112.03
2019-01-23T07:50:32.116Z,108.95
2019-01-23T07:53:00.067Z,111.50
2019-01-23T07:55:28.051Z,108.03
2019-01-23T07:57:56.032Z,105.92
2019-01-23T08:00:31.030Z,103.62
2019-01-23T08:02:54.234Z,106.70
2019-01-23T08:05:23.002Z,115.37
2019-01-23T08:07:50.984Z,118.60
2019-01-23T08:10:18.922Z,121.53
2019-01-23T08:12:46.927Z,115.37
2019-01-23T08:15:16.333Z,112.10
2019-01-23T08:17:44.271Z,109.83
2019-01-23T08:20:13.423Z,112.65
2019-01-23T08:22:41.365Z,111.57
2019-01-23T08:25:09.715Z,102.35
2019-01-23T08:27:37.668Z,108.92
2019-01-23T08:30:06.070Z,105.00
2019-01-23T08:32:34.035Z,112.57
2019-01-23T08:35:01.994Z,104.15
2019-01-23T08:37:48.979Z,115.32
2019-01-23T08:40:16.992Z,116.93
2019-01-23T08:42:45.036Z,117.53
2019-01-23T08:45:13.077Z,122.82
2019-01-23T08:47:41.085Z,109.10
2019-01-23T08:50:12.360Z,107.30
2019-01-23T08:52:40.304Z,115.37
2019-01-23T08:55:08.310Z,114.77
2019-01-23T08:57:36.234Z,116.62
2019-01-23T09:00:05.250Z,115.47
2019-01-23T09:02:33.312Z,119.00
2019-01-23T09:05:01.300Z,116.27
2019-01-23T09:07:29.277Z,109.32
2019-01-23T09:09:57.210Z,116.22
2019-01-23T09:12:25.199Z,113.30
2019-01-23T09:14:53.147Z,118.77
2019-01-23T09:17:21.378Z,121.67
2019-01-23T09:19:49.402Z,119.33
2019-01-23T09:22:17.425Z,110.87
2019-01-23T09:24:45.438Z,118.07
2019-01-23T09:27:13.428Z,119.00
2019-01-23T09:29:41.389Z,113.37
2019-01-23T09:32:28.444Z,115.03
2019-01-23T09:35:15.382Z,120.00
2019-01-23T09:38:02.313Z,110.10
2019-01-23T09:40:49.336Z,113.70
2019-01-23T09:43:24.526Z,115.83
2019-01-23T09:46:11.541Z,116.00
2019-01-23T09:48:58.587Z,109.17
2019-01-23T09:51:45.530Z,117.37
2019-01-23T09:54:14.610Z,123.20
2019-01-23T09:56:44.440Z,120.63
2019-01-23T09:59:12.421Z,117.77
2019-01-23T10:01:40.487Z,117.10
2019-01-23T10:04:08.427Z,127.57
2019-01-23T10:06:36.413Z,122.67
2019-01-23T10:14:31.481Z,112.90
2019-01-23T10:16:59.635Z,120.30
2019-01-23T10:19:27.578Z,118.57
2019-01-23T10:21:55.509Z,117.97
2019-01-23T10:24:23.532Z,131.97
2019-01-23T10:26:51.514Z,123.27
2019-01-23T10:29:19.577Z,114.87
2019-01-23T10:31:47.927Z,117.47
2019-01-23T10:34:15.921Z,118.67
2019-01-23T10:36:43.882Z,130.63
2019-01-23T10:39:11.872Z,121.07
2019-01-23T10:41:39.810Z,116.00
2019-01-23T10:44:07.881Z,121.53
2019-01-23T10:46:37.552Z,120.20
2019-01-23T10:49:07.527Z,115.37
2019-01-23T10:51:35.581Z,108.23
2019-01-23T10:54:03.629Z,114.27
2019-01-23T10:59:18.746Z,110.23
2019-01-23T11:02:05.765Z,102.83
2019-01-23T11:04:33.773Z,104.77
2019-01-23T11:07:01.731Z,113.67
2019-01-23T11:09:29.799Z,112.67
2019-01-23T11:11:57.733Z,117.27
2019-01-23T11:14:25.728Z,115.17
2019-01-23T11:16:53.739Z,112.83
2019-01-23T11:19:21.698Z,114.97
2019-01-23T11:21:49.796Z,144.63
2019-01-23T11:24:17.762Z,131.37
2019-01-23T11:26:45.754Z,112.83
2019-01-23T11:29:14.009Z,112.53
2019-01-23T11:31:42.107Z,111.23
2019-01-23T11:34:10.101Z,113.80
2019-01-23T11:36:38.121Z,111.83
2019-01-23T11:39:08.038Z,113.67
2019-01-23T11:44:18.071Z,113.27
2019-01-23T11:46:46.521Z,108.27
2019-01-23T11:49:14.481Z,115.27
2019-01-23T11:51:42.497Z,118.33
2019-01-23T11:54:10.439Z,115.80
2019-01-23T11:59:20.571Z,107.37
2019-01-23T12:01:48.681Z,111.27
2019-01-23T12:04:16.756Z,108.37
2019-01-23T12:06:44.728Z,117.70
2019-01-23T12:09:12.690Z,110.77
2019-01-23T12:11:40.876Z,110.03
2019-01-23T12:14:09.100Z,109.10
2019-01-23T12:16:37.645Z,114.77
2019-01-23T12:19:06.234Z,109.20
2019-01-23T12:21:34.410Z,109.70
2019-01-23T12:24:02.612Z,108.30
2019-01-23T12:26:30.810Z,108.73
2019-01-23T12:28:58.800Z,109.77
2019-01-23T12:31:26.769Z,108.37
2019-01-23T12:33:55.037Z,112.97
2019-01-23T12:36:23.056Z,108.33
2019-01-23T12:38:51.652Z,112.43
2019-01-23T12:41:20.329Z,105.80
2019-01-23T12:43:49.009Z,114.23
2019-01-23T12:46:16.924Z,114.60
2019-01-23T12:51:28.960Z,112.70
2019-01-23T12:53:56.978Z,103.93
2019-01-23T12:56:25.834Z,106.90
2019-01-23T12:58:54.250Z,110.25
2019-01-23T13:01:22.296Z,110.93
2019-01-23T13:03:50.836Z,107.93
2019-01-23T13:06:18.796Z,109.40
2019-01-23T13:08:47.020Z,103.57
2019-01-23T13:11:15.571Z,108.13
2019-01-23T13:16:25.656Z,114.13
2019-01-23T13:18:53.600Z,109.93
2019-01-23T13:21:21.555Z,122.37
2019-01-23T13:26:33.264Z,114.00
2019-01-23T13:29:02.285Z,117.90
2019-01-23T13:31:31.047Z,105.77
2019-01-23T13:33:59.444Z,111.23
2019-01-23T13:36:28.242Z,111.50
2019-01-23T13:38:57.043Z,119.73
2019-01-23T13:41:44.629Z,107.37
2019-01-23T13:44:13.976Z,108.80
2019-01-23T13:46:42.473Z,116.23
2019-01-23T13:49:11.151Z,117.00
2019-01-23T13:51:40.001Z,118.40
2019-01-23T13:54:08.110Z,118.80
2019-01-23T13:56:36.156Z,118.77
2019-01-23T14:01:56.273Z,114.47
2019-01-23T14:04:22.440Z,109.77
2019-01-23T14:06:51.103Z,112.20
2019-01-23T14:09:19.271Z,122.10
2019-01-23T14:11:47.207Z,119.37
2019-01-23T14:14:15.272Z,124.07
2019-01-23T14:16:43.221Z,129.35
2019-01-23T14:19:30.195Z,119.77
2019-01-23T14:21:58.764Z,118.22
2019-01-23T14:24:26.853Z,123.00
2019-01-23T14:26:54.771Z,138.22
2019-01-23T14:29:22.771Z,119.30
2019-01-23T14:31:51.272Z,129.42
2019-01-23T14:34:19.332Z,127.70
2019-01-23T14:36:47.272Z,143.20
2019-01-23T14:39:15.221Z,133.72
2019-01-23T14:41:43.252Z,135.20
2019-01-23T14:44:11.289Z,151.20
2019-01-23T14:46:39.252Z,122.55
2019-01-23T14:49:07.237Z,129.23
2019-01-23T14:51:35.175Z,126.65
2019-01-23T14:54:22.238Z,134.77
2019-01-23T14:56:50.642Z,126.92
2019-01-23T14:59:18.648Z,127.40
2019-01-23T15:01:47.055Z,126.55
2019-01-23T15:04:15.449Z,144.90
2019-01-23T15:06:43.464Z,129.53
2019-01-23T15:09:11.921Z,129.40
2019-01-23T15:11:40.122Z,128.80
2019-01-23T15:14:09.803Z,132.82
2019-01-23T15:16:37.807Z,129.72
2019-01-23T15:19:05.776Z,136.95
2019-01-23T15:21:33.764Z,149.02
2019-01-23T15:24:01.720Z,148.50
2019-01-23T15:26:29.773Z,128.05
2019-01-23T15:28:57.760Z,129.42
2019-01-23T15:31:25.879Z,140.30
2019-01-23T15:33:53.911Z,128.18
2019-01-23T15:36:21.886Z,140.95
2019-01-23T15:38:49.860Z,123.25
2019-01-23T15:41:17.898Z,121.35
2019-01-23T15:43:46.026Z,118.55
2019-01-23T15:46:14.287Z,122.22
2019-01-23T15:48:42.183Z,130.63
2019-01-23T15:51:10.088Z,126.35
2019-01-23T15:56:39.144Z,119.00
2019-01-23T16:01:49.310Z,123.92
2019-01-23T16:04:17.371Z,125.42
2019-01-23T16:06:45.301Z,121.87
2019-01-23T16:09:13.316Z,137.40
2019-01-23T16:11:41.378Z,138.62
2019-01-23T16:14:09.499Z,122.70
2019-01-23T16:16:37.507Z,125.60
2019-01-23T16:19:05.883Z,125.27
2019-01-23T16:21:33.834Z,125.70
2019-01-23T16:24:01.829Z,126.72
2019-01-23T16:26:29.873Z,119.62
2019-01-23T16:28:57.901Z,122.90
2019-01-23T16:31:25.839Z,119.40
2019-01-23T16:33:53.901Z,133.78
2019-01-23T16:36:21.885Z,148.05
2019-01-23T16:38:50.215Z,141.55
2019-01-23T16:41:18.494Z,131.60
2019-01-23T16:43:46.507Z,131.25
2019-01-23T16:46:14.550Z,143.68
2019-01-23T16:48:42.661Z,161.22
2019-01-23T16:51:11.236Z,156.60
2019-01-23T16:53:40.074Z,142.55
2019-01-23T16:56:09.093Z,139.12
2019-01-23T16:58:37.780Z,138.22
2019-01-23T17:01:06.238Z,135.40
2019-01-23T17:03:34.901Z,139.22
2019-01-23T17:06:02.814Z,136.77
2019-01-23T17:08:30.832Z,134.03
2019-01-23T17:10:59.173Z,135.90
2019-01-23T17:13:27.742Z,123.20
2019-01-23T17:15:56.358Z,122.20
2019-01-23T17:18:24.888Z,118.17
2019-01-23T17:20:53.617Z,137.55
2019-01-23T17:23:21.665Z,155.90
2019-01-23T17:25:49.697Z,168.28
2019-01-23T17:28:18.305Z,147.82
2019-01-23T17:30:46.328Z,132.95
2019-01-23T17:33:14.630Z,141.75
2019-01-23T17:35:43.025Z,138.37
2019-01-23T17:38:11.093Z,130.05
2019-01-23T17:40:39.122Z,120.72
2019-01-23T17:43:08.093Z,125.33
2019-01-23T17:45:38.181Z,161.65
2019-01-23T17:48:07.718Z,128.02
2019-01-23T17:50:35.688Z,127.53
2019-01-23T17:53:22.917Z,135.43
2019-01-23T17:55:51.005Z,126.22
2019-01-23T17:58:19.247Z,135.70
2019-01-23T18:01:06.672Z,125.58
2019-01-23T18:03:34.854Z,122.13
2019-01-23T18:06:02.825Z,126.93
2019-01-23T18:08:30.821Z,136.17
2019-01-23T18:11:00.554Z,131.35
2019-01-23T18:13:28.737Z,130.35
2019-01-23T18:16:01.219Z,127.07
2019-01-23T18:18:29.910Z,123.82
2019-01-23T18:20:57.924Z,131.90
2019-01-23T18:23:44.874Z,127.38
2019-01-23T18:26:13.643Z,125.27
2019-01-23T18:28:41.597Z,126.78
2019-01-23T18:31:14.978Z,124.00
2019-01-23T18:34:01.986Z,122.02
2019-01-23T18:36:49.063Z,125.05
2019-01-23T18:39:21.312Z,128.75
2019-01-23T18:41:52.667Z,131.75
2019-01-23T18:44:39.609Z,129.15
2019-01-23T18:47:35.315Z,125.38
2019-01-23T18:50:22.318Z,122.20
2019-01-23T18:58:13.967Z,125.58
2019-01-23T19:01:01.001Z,135.12
2019-01-23T19:03:28.971Z,126.30
2019-01-23T19:06:16.036Z,127.75
2019-01-23T19:08:44.099Z,123.97
2019-01-23T19:11:12.096Z,126.00
2019-01-23T19:13:40.037Z,120.37
2019-01-23T19:19:10.552Z,141.03
2019-01-23T19:21:38.562Z,118.40
2019-01-23T19:24:06.605Z,120.17
2019-01-23T19:26:34.963Z,116.62
2019-01-23T19:29:02.876Z,121.92
2019-01-23T19:31:30.849Z,134.95
2019-01-23T19:33:58.945Z,144.13
2019-01-23T19:36:26.946Z,130.27
2019-01-23T19:38:54.839Z,127.07
2019-01-23T19:41:22.962Z,126.53
2019-01-23T19:43:51.012Z,126.72
2019-01-23T19:46:19.172Z,130.00
2019-01-23T19:48:47.219Z,116.03
2019-01-23T19:51:15.313Z,134.50
2019-01-23T19:53:43.417Z,186.85
2019-01-23T19:56:11.360Z,187.88
2019-01-23T19:58:39.337Z,180.35
2019-01-23T20:01:07.304Z,170.53
2019-01-23T20:03:35.271Z,141.50
2019-01-23T20:06:03.255Z,118.77
2019-01-23T20:08:31.296Z,132.63
2019-01-23T20:10:59.356Z,149.27
2019-01-23T20:13:27.340Z,151.07
2019-01-23T20:15:55.323Z,135.80
2019-01-23T20:18:23.228Z,133.87
2019-01-23T20:20:51.175Z,151.02
2019-01-23T20:23:19.222Z,148.00
2019-01-23T20:25:47.200Z,140.03
2019-01-23T20:28:15.216Z,144.77
2019-01-23T20:30:43.957Z,132.97
2019-01-23T20:33:11.949Z,133.43
2019-01-23T20:35:58.894Z,135.70
2019-01-23T20:38:45.832Z,134.12
2019-01-23T20:41:13.777Z,126.27
2019-01-23T20:43:41.797Z,124.90
2019-01-23T20:46:09.747Z,133.52
2019-01-23T20:48:37.828Z,133.10
2019-01-23T20:51:05.920Z,139.35
2019-01-23T20:53:33.885Z,141.45
2019-01-23T20:56:01.819Z,146.90
2019-01-23T20:58:29.915Z,144.85
2019-01-23T21:00:57.990Z,137.00
2019-01-23T21:06:08.413Z,132.63
2019-01-23T21:08:37.379Z,128.02
2019-01-23T21:11:24.469Z,123.97
2019-01-23T21:13:52.442Z,130.53
2019-01-23T21:16:20.422Z,123.92
2019-01-23T21:18:48.474Z,121.45
2019-01-23T21:21:16.449Z,122.28
2019-01-23T21:23:44.513Z,119.80
2019-01-23T21:26:12.498Z,126.53
2019-01-23T21:28:40.528Z,144.68
2019-01-23T21:31:08.551Z,126.60
2019-01-23T21:33:42.069Z,140.20
2019-01-23T21:36:06.298Z,130.85
2019-01-23T21:38:34.285Z,144.35
2019-01-23T21:41:02.241Z,142.75
2019-01-23T21:43:30.236Z,134.47
2019-01-23T21:45:58.198Z,131.07
2019-01-23T21:48:26.152Z,152.95
2019-01-23T21:50:54.100Z,125.60
2019-01-23T21:53:22.098Z,152.45
2019-01-23T21:55:50.064Z,132.47
2019-01-23T21:58:18.114Z,124.90
2019-01-23T22:00:47.264Z,127.87
2019-01-23T22:03:34.208Z,128.53
2019-01-23T22:06:02.243Z,120.62
2019-01-23T22:08:30.166Z,126.75
2019-01-23T22:10:58.169Z,136.15
2019-01-23T22:13:26.209Z,124.38
2019-01-23T22:15:54.203Z,128.57
2019-01-23T22:18:22.305Z,134.12
2019-01-23T22:20:50.342Z,135.05
2019-01-23T22:23:18.333Z,131.67
2019-01-23T22:25:46.299Z,135.48
2019-01-23T22:28:14.382Z,131.07
2019-01-23T22:30:42.327Z,137.07
2019-01-23T22:33:10.333Z,127.62
2019-01-23T22:35:38.271Z,127.80
2019-01-23T22:38:06.553Z,132.35
2019-01-23T22:40:34.493Z,135.65
2019-01-23T22:43:02.562Z,137.05
2019-01-23T22:45:30.661Z,127.95
2019-01-23T22:47:58.697Z,126.85
2019-01-23T22:50:27.296Z,129.18
2019-01-23T22:52:55.379Z,148.02
2019-01-23T22:55:23.451Z,155.45
2019-01-23T22:57:51.391Z,153.25
2019-01-23T23:00:39.431Z,160.52
2019-01-23T23:03:09.382Z,145.53
2019-01-23T23:05:37.312Z,137.03
2019-01-23T23:08:05.499Z,140.80
2019-01-23T23:10:33.452Z,135.57
2019-01-23T23:13:01.420Z,134.57
2019-01-23T23:15:29.416Z,142.20
2019-01-23T23:17:57.360Z,150.80
2019-01-23T23:20:25.355Z,138.72
2019-01-23T23:22:53.293Z,152.38
2019-01-23T23:25:21.282Z,145.10
2019-01-23T23:27:49.250Z,157.12
2019-01-23T23:30:17.280Z,152.68
2019-01-23T23:32:45.310Z,144.35
2019-01-23T23:35:13.363Z,157.55
2019-01-23T23:37:41.443Z,139.57
2019-01-23T23:40:09.634Z,149.60
2019-01-23T23:42:37.586Z,144.50
2019-01-23T23:45:06.379Z,152.47
2019-01-23T23:47:34.388Z,160.75
2019-01-23T23:50:02.296Z,146.18
2019-01-23T23:52:30.270Z,136.37
2019-01-23T23:54:58.282Z,144.37
2019-01-23T23:57:26.197Z,139.95
